Time;durP1;ratioP1;P1;durP2;ratioP2;P2;SDS_P1;SDS_P2;PMS_P1;PMS_P2;Temp;Humidity;BMP_temperature;BMP_pressure;BME280_temperature;BME280_humidity;BME280_pressure;Samples;Min_cycle;Max_cycle;Signal;HPM_P1;HPM_P2
2023/09/16 00:01:11;;;;;;;17.53;13.23;;;17.40;40.00;;;;;;7367940;19;20801;-68
2023/09/16 00:03:42;;;;;;;17.13;12.65;;;17.50;37.30;;;;;;7368741;19;20073;-68
2023/09/16 00:06:12;;;;;;;16.65;13.48;;;17.40;39.40;;;;;;7366406;19;20534;-66
2023/09/16 00:08:43;;;;;;;15.70;12.43;;;17.40;39.00;;;;;;7364965;19;20015;-67
2023/09/16 00:11:14;;;;;;;18.98;12.82;;;17.30;40.10;;;;;;7369256;19;20063;-66
2023/09/16 00:13:46;;;;;;;16.70;13.18;;;17.20;44.20;;;;;;7375170;19;20047;-66
2023/09/16 00:16:17;;;;;;;19.75;13.85;;;17.20;49.20;;;;;;7371896;19;20752;-67
2023/09/16 00:18:47;;;;;;;19.40;13.68;;;17.20;53.30;;;;;;7375511;19;20014;-68
2023/09/16 00:21:17;;;;;;;20.33;13.93;;;17.30;50.90;;;;;;7372153;19;20500;-67
2023/09/16 00:23:47;;;;;;;16.95;12.52;;;17.30;47.40;;;;;;7375260;19;20015;-68
2023/09/16 00:26:18;;;;;;;16.92;13.65;;;17.20;49.20;;;;;;7371304;19;20082;-67
2023/09/16 00:28:50;;;;;;;16.35;12.75;;;17.20;52.50;;;;;;7375591;19;20007;-68
2023/09/16 00:31:21;;;;;;;16.33;13.40;;;17.10;53.30;;;;;;7373813;19;20006;-67
2023/09/16 00:33:51;;;;;;;18.35;13.52;;;17.10;53.50;;;;;;7374682;19;20010;-68
2023/09/16 00:36:21;;;;;;;18.83;13.48;;;17.10;55.80;;;;;;7371595;19;20354;-68
2023/09/16 00:38:51;;;;;;;17.10;13.70;;;17.10;55.00;;;;;;7374624;19;21237;-68
2023/09/16 00:41:21;;;;;;;18.73;14.32;;;17.10;56.60;;;;;;7373789;19;20025;-66
2023/09/16 00:43:54;;;;;;;17.42;14.60;;;17.10;54.60;;;;;;7374722;19;20014;-67
2023/09/16 00:46:24;;;;;;;18.92;14.55;;;17.00;56.30;;;;;;7371949;19;20094;-66
2023/09/16 00:48:54;;;;;;;18.15;14.52;;;17.00;58.70;;;;;;7375718;19;20018;-68
2023/09/16 00:51:24;;;;;;;19.77;14.38;;;17.00;59.30;;;;;;7374287;19;20031;-67
2023/09/16 00:53:55;;;;;;;17.92;14.45;;;17.00;61.30;;;;;;7374650;19;20020;-68
2023/09/16 00:56:27;;;;;;;19.38;14.68;;;17.00;65.30;;;;;;7371987;19;20013;-67
2023/09/16 00:59:01;;;;;;;17.17;14.10;;;17.00;65.80;;;;;;7373962;19;20010;-67
2023/09/16 01:01:32;;;;;;;18.65;14.65;;;17.00;63.80;;;;;;7374124;19;20018;-68
2023/09/16 01:04:02;;;;;;;19.13;14.52;;;17.00;62.90;;;;;;7372947;19;20014;-68
2023/09/16 01:06:33;;;;;;;16.45;13.60;;;17.00;63.40;;;;;;7371177;19;20344;-66
2023/09/16 01:09:03;;;;;;;18.25;14.50;;;17.00;66.50;;;;;;7373659;19;20010;-67
2023/09/16 01:11:34;;;;;;;18.20;13.57;;;16.90;67.00;;;;;;7373569;19;20078;-67
2023/09/16 01:14:23;;;;;;;17.35;13.50;;;16.90;66.30;;;;;;7368857;19;20679;-69
2023/09/16 01:17:01;;;;;;;19.25;13.48;;;16.90;65.20;;;;;;7367354;19;20112;-68
2023/09/16 01:19:43;;;;;;;20.58;15.00;;;16.80;67.10;;;;;;7372934;19;20031;-68
2023/09/16 01:22:14;;;;;;;19.30;15.13;;;16.80;69.80;;;;;;7373068;19;20017;-68
2023/09/16 01:24:44;;;;;;;18.70;14.88;;;16.90;70.60;;;;;;7370855;19;20015;-68
2023/09/16 01:27:17;;;;;;;22.05;15.82;;;16.80;70.80;;;;;;7369426;19;20014;-68
2023/09/16 01:29:47;;;;;;;20.58;14.93;;;16.90;70.60;;;;;;7372965;19;20040;-67
2023/09/16 01:32:19;;;;;;;17.40;13.88;;;16.80;72.40;;;;;;7372118;19;20102;-67
2023/09/16 01:34:52;;;;;;;17.10;13.95;;;16.80;73.00;;;;;;7371422;19;20022;-68
2023/09/16 01:37:25;;;;;;;20.10;14.27;;;16.80;73.50;;;;;;7370475;19;20444;-68
2023/09/16 01:39:59;;;;;;;18.13;13.80;;;16.80;69.80;;;;;;7372701;19;20006;-68
2023/09/16 01:42:34;;;;;;;17.70;13.63;;;16.80;72.00;;;;;;7370917;19;20091;-68
2023/09/16 01:45:04;;;;;;;;;;;16.80;73.30;;;;;;7372842;19;20057;-68
2023/09/16 01:47:34;;;;;;;19.65;14.27;;;16.80;72.00;;;;;;7369767;19;19978;-66
2023/09/16 01:50:04;;;;;;;19.50;13.70;;;16.80;68.30;;;;;;7372033;19;20018;-67
2023/09/16 01:52:34;;;;;;;18.13;14.05;;;16.80;67.60;;;;;;7372318;19;20078;-67
2023/09/16 01:55:04;;;;;;;19.45;14.48;;;16.80;68.70;;;;;;7371862;19;20517;-66
2023/09/16 01:57:37;;;;;;;23.80;15.20;;;16.80;71.50;;;;;;7366009;19;20018;-68
2023/09/16 02:00:08;;;;;;;21.63;15.38;;;16.80;71.80;;;;;;7389345;19;20030;-68
2023/09/16 02:02:38;;;;;;;18.75;14.25;;;16.80;71.00;;;;;;7389525;19;20022;-68
2023/09/16 02:05:10;;;;;;;18.10;14.23;;;16.70;73.50;;;;;;7389978;19;20616;-68
2023/09/16 02:07:40;;;;;;;20.23;13.80;;;16.70;75.00;;;;;;7388743;19;20010;-68
2023/09/16 02:10:11;;;;;;;18.15;14.85;;;16.70;74.70;;;;;;7391167;19;20026;-68
2023/09/16 02:12:43;;;;;;;18.92;15.55;;;16.70;74.80;;;;;;7390748;19;20470;-68
2023/09/16 02:15:13;;;;;;;18.55;14.35;;;16.70;75.80;;;;;;7390922;19;20010;-68
2023/09/16 02:17:46;;;;;;;20.85;14.95;;;16.70;78.10;;;;;;7390746;19;20014;-68
2023/09/16 02:20:19;;;;;;;22.88;14.85;;;16.70;80.10;;;;;;7390965;19;20074;-67
2023/09/16 02:22:49;;;;;;;20.52;14.48;;;16.60;80.70;;;;;;7390441;19;20007;-67
2023/09/16 02:25:25;;;;;;;19.85;15.13;;;16.60;81.90;;;;;;7389342;19;20014;-68
2023/09/16 02:28:02;;;;;;;30.52;15.40;;;16.60;83.60;;;;;;7390265;19;20018;-67
2023/09/16 02:30:38;;;;;;;19.50;15.57;;;16.60;82.90;;;;;;7389446;19;20010;-68
2023/09/16 02:33:13;;;;;;;20.67;15.55;;;16.50;83.70;;;;;;7389999;19;20082;-67
2023/09/16 02:35:46;;;;;;;21.75;15.10;;;16.60;86.90;;;;;;7386546;19;20010;-68
2023/09/16 02:38:21;;;;;;;22.00;15.88;;;16.50;87.40;;;;;;7388577;19;20039;-68
2023/09/16 02:40:51;;;;;;;20.45;15.93;;;16.50;88.60;;;;;;7389179;19;20070;-67
2023/09/16 02:43:26;;;;;;;23.95;17.33;;;16.50;90.00;;;;;;7387718;19;20011;-68
2023/09/16 02:45:58;;;;;;;22.58;16.70;;;16.50;90.50;;;;;;7389610;19;20478;-67
2023/09/16 02:48:34;;;;;;;21.17;15.70;;;16.50;90.00;;;;;;7390919;19;20031;-67
2023/09/16 02:51:09;;;;;;;25.60;16.63;;;16.40;90.80;;;;;;7387428;19;20411;-68
2023/09/16 02:53:42;;;;;;;21.23;15.98;;;16.40;90.90;;;;;;7390169;19;20014;-68
2023/09/16 02:56:12;;;;;;;22.13;15.55;;;16.30;91.20;;;;;;7387435;19;20043;-68
2023/09/16 02:58:50;;;;;;;22.60;16.15;;;16.30;93.50;;;;;;7390297;19;20096;-69
2023/09/16 03:01:20;;;;;;;23.60;15.95;;;16.30;95.10;;;;;;7389256;19;20089;-67
2023/09/16 03:03:50;;;;;;;22.38;16.40;;;16.20;96.60;;;;;;7390682;19;20104;-68
2023/09/16 03:06:20;;;;;;;24.70;16.83;;;16.30;99.90;;;;;;7389432;19;20094;-67
2023/09/16 03:08:50;;;;;;;21.67;16.33;;;16.30;99.90;;;;;;7390800;19;20109;-68
2023/09/16 03:11:23;;;;;;;21.95;16.65;;;16.30;99.30;;;;;;7389204;19;20129;-67
2023/09/16 03:13:55;;;;;;;23.00;16.70;;;16.30;99.90;;;;;;7390174;19;20487;-67
2023/09/16 03:16:26;;;;;;;22.98;16.38;;;16.20;99.90;;;;;;7387712;19;20478;-67
2023/09/16 03:18:56;;;;;;;21.35;17.08;;;16.20;99.90;;;;;;7390441;19;20094;-67
2023/09/16 03:21:27;;;;;;;22.67;15.75;;;16.10;99.90;;;;;;7387240;19;20048;-67
2023/09/16 03:23:57;;;;;;;24.05;17.00;;;16.10;99.90;;;;;;7389180;19;20490;-67
2023/09/16 03:26:27;;;;;;;22.80;16.55;;;16.10;99.90;;;;;;7388313;19;20081;-68
2023/09/16 03:29:00;;;;;;;26.13;16.70;;;16.10;99.90;;;;;;7389601;19;20090;-68
2023/09/16 03:31:30;;;;;;;22.08;16.35;;;16.10;99.90;;;;;;7389188;19;20035;-68
2023/09/16 03:34:00;;;;;;;22.65;16.45;;;16.10;99.90;;;;;;7388756;19;20029;-68
2023/09/16 03:36:33;;;;;;;22.77;17.35;;;16.20;99.90;;;;;;7387350;19;20021;-67
2023/09/16 03:39:05;;;;;;;22.23;16.30;;;16.10;99.80;;;;;;7387399;19;20007;-67
2023/09/16 03:41:37;;;;;;;19.60;16.10;;;16.10;99.90;;;;;;7389556;19;20347;-67
2023/09/16 03:44:11;;;;;;;22.60;16.65;;;16.10;99.90;;;;;;7388952;19;20488;-68
2023/09/16 03:46:41;;;;;;;22.50;17.50;;;16.00;99.90;;;;;;7389146;19;20017;-68
2023/09/16 03:49:14;;;;;;;24.65;18.17;;;16.00;99.90;;;;;;7395620;19;20502;-68
2023/09/16 03:51:46;;;;;;;20.38;17.20;;;15.90;99.90;;;;;;7395294;19;20014;-67
2023/09/16 03:54:16;;;;;;;22.52;15.95;;;15.90;99.90;;;;;;7395740;19;20007;-67
2023/09/16 03:56:47;;;;;;;23.67;16.27;;;15.90;99.90;;;;;;7395254;19;20078;-67
2023/09/16 03:59:20;;;;;;;19.15;15.27;;;15.90;99.90;;;;;;7396623;19;20027;-68
2023/09/16 04:01:50;;;;;;;21.40;16.17;;;15.90;99.90;;;;;;7394676;19;20011;-67
2023/09/16 04:04:20;;;;;;;19.30;14.05;;;15.90;99.90;;;;;;7395553;19;20014;-67
2023/09/16 04:06:50;;;;;;;17.02;14.30;;;15.90;99.90;;;;;;7395359;19;20025;-67
2023/09/16 04:09:20;;;;;;;15.68;12.90;;;15.90;99.90;;;;;;7395322;19;20032;-68
2023/09/16 04:11:50;;;;;;;20.83;12.90;;;15.80;99.90;;;;;;7395453;19;20009;-66
2023/09/16 04:14:23;;;;;;;17.27;13.38;;;15.80;99.90;;;;;;7395761;19;20425;-67
2023/09/16 04:16:53;;;;;;;15.43;13.03;;;15.80;99.90;;;;;;7393018;19;20011;-67
2023/09/16 04:19:23;;;;;;;16.30;12.60;;;15.80;99.90;;;;;;7395458;19;20015;-67
2023/09/16 04:21:54;;;;;;;16.23;13.45;;;15.80;99.90;;;;;;7394784;19;20470;-67
2023/09/16 04:24:24;;;;;;;16.17;12.15;;;15.80;99.90;;;;;;7395067;19;20044;-67
2023/09/16 04:26:54;;;;;;;14.88;12.45;;;15.80;99.90;;;;;;7394819;19;20047;-67
2023/09/16 04:29:27;;;;;;;14.05;11.82;;;15.80;99.90;;;;;;7395495;19;20015;-68
2023/09/16 04:31:57;;;;;;;16.92;12.45;;;15.80;99.90;;;;;;7394304;19;20006;-68
2023/09/16 04:34:27;;;;;;;14.80;11.82;;;15.80;99.90;;;;;;7395784;19;20014;-68
2023/09/16 04:36:58;;;;;;;15.90;12.45;;;15.80;99.90;;;;;;7392944;19;20010;-67
2023/09/16 04:39:29;;;;;;;15.90;11.77;;;15.80;99.00;;;;;;7395553;19;20039;-67
2023/09/16 04:41:59;;;;;;;18.90;12.48;;;15.70;99.30;;;;;;7393925;19;20078;-66
2023/09/16 04:44:38;;;;;;;13.32;11.30;;;15.60;99.90;;;;;;7393066;19;20530;-66
2023/09/16 04:47:10;;;;;;;13.10;10.93;;;15.60;99.90;;;;;;7393591;19;20010;-67
2023/09/16 04:49:40;;;;;;;13.18;11.27;;;15.60;99.90;;;;;;7394718;19;20035;-67
2023/09/16 04:52:10;;;;;;;14.32;12.20;;;15.50;99.20;;;;;;7393740;19;20006;-67
2023/09/16 04:54:40;;;;;;;14.90;12.07;;;15.50;99.80;;;;;;7394924;19;20010;-67
2023/09/16 04:57:11;;;;;;;13.27;10.88;;;15.50;99.90;;;;;;7392788;19;20089;-67
2023/09/16 04:59:45;;;;;;;15.35;11.77;;;15.50;99.20;;;;;;7393243;19;20024;-68
2023/09/16 05:02:15;;;;;;;17.27;11.80;;;15.50;98.20;;;;;;7389767;19;20473;-67
2023/09/16 05:04:45;;;;;;;12.77;11.15;;;15.50;97.20;;;;;;7393767;19;20021;-67
2023/09/16 05:07:14;;;;;;;16.17;11.57;;;15.50;97.80;;;;;;7392155;19;20017;-67
2023/09/16 05:09:44;;;;;;;16.25;12.13;;;15.50;98.60;;;;;;7393824;19;20025;-67
2023/09/16 05:12:14;;;;;;;13.43;11.57;;;15.60;97.00;;;;;;7392081;19;20018;-68
2023/09/16 05:14:49;;;;;;;15.65;12.57;;;15.60;96.30;;;;;;7393393;19;20023;-67
2023/09/16 05:17:19;;;;;;;16.05;13.13;;;15.60;97.30;;;;;;7391963;19;20017;-67
2023/09/16 05:19:49;;;;;;;17.60;12.70;;;15.60;97.70;;;;;;7393884;19;20031;-67
2023/09/16 05:22:19;;;;;;;15.43;11.73;;;16.30;60.30;;;;;;7391209;19;20007;-66
2023/09/16 05:24:49;;;;;;;14.95;12.27;;;16.20;53.80;;;;;;7393365;19;20010;-67
2023/09/16 05:27:23;;;;;;;19.10;11.90;;;16.00;65.90;;;;;;7389923;19;20485;-67
2023/09/16 05:29:56;;;;;;;14.55;12.38;;;15.90;77.00;;;;;;7392313;19;20518;-68
2023/09/16 05:32:26;;;;;;;15.30;12.30;;;15.90;79.70;;;;;;7392384;19;20031;-68
2023/09/16 05:34:56;;;;;;;14.02;11.77;;;15.90;83.30;;;;;;7392370;19;20010;-68
2023/09/16 05:37:26;;;;;;;15.60;13.02;;;16.00;82.80;;;;;;7391614;19;20556;-68
2023/09/16 05:39:56;;;;;;;18.85;14.10;;;16.00;81.80;;;;;;7392458;19;20010;-68
2023/09/16 05:42:26;;;;;;;20.20;14.82;;;16.10;79.90;;;;;;7390898;19;20122;-68
2023/09/16 05:45:01;;;;;;;18.00;13.98;;;16.10;73.00;;;;;;7392516;19;20015;-68
2023/09/16 05:47:31;;;;;;;18.13;13.07;;;16.20;63.50;;;;;;7391894;19;20554;-68
2023/09/16 05:50:03;;;;;;;18.30;14.07;;;16.20;67.50;;;;;;7392536;19;20161;-68
2023/09/16 05:52:32;;;;;;;18.15;14.23;;;16.30;59.60;;;;;;7390560;19;20018;-68
2023/09/16 05:55:02;;;;;;;16.35;14.15;;;16.30;58.90;;;;;;7392302;19;20084;-68
2023/09/16 05:57:32;;;;;;;18.55;14.80;;;16.30;54.00;;;;;;7391627;19;20018;-68
2023/09/16 06:00:06;;;;;;;18.30;14.25;;;16.50;55.10;;;;;;7389868;19;20428;-66
2023/09/16 06:02:39;;;;;;;16.93;13.87;;;16.40;44.40;;;;;;7391581;19;20031;-67
2023/09/16 06:05:11;;;;;;;16.55;14.13;;;16.50;42.20;;;;;;7392670;19;20018;-66
2023/09/16 06:07:43;;;;;;;18.33;13.85;;;16.50;46.30;;;;;;7392112;19;20035;-67
2023/09/16 06:10:13;;;;;;;18.98;14.18;;;16.60;46.80;;;;;;7391831;19;20010;-67
2023/09/16 06:12:46;;;;;;;16.70;14.30;;;16.70;41.60;;;;;;7391800;19;20010;-67
2023/09/16 06:15:19;;;;;;;17.37;13.53;;;16.70;35.70;;;;;;7392759;19;20010;-67
2023/09/16 06:17:49;;;;;;;16.70;13.88;;;16.80;34.20;;;;;;7391771;19;20021;-67
2023/09/16 06:20:19;;;;;;;16.20;12.57;;;16.90;29.80;;;;;;7390765;19;20121;-67
2023/09/16 06:22:49;;;;;;;17.75;13.15;;;17.10;26.90;;;;;;7391633;19;20081;-67
2023/09/16 06:25:19;;;;;;;16.08;12.73;;;17.00;24.80;;;;;;7392439;19;20017;-67
2023/09/16 06:27:49;;;;;;;17.70;14.13;;;17.10;26.00;;;;;;7391688;19;20031;-67
2023/09/16 06:30:21;;;;;;;17.15;13.38;;;17.10;27.20;;;;;;7391602;19;20471;-67
2023/09/16 06:32:52;;;;;;;15.07;12.25;;;17.20;23.60;;;;;;7391441;19;20011;-67
2023/09/16 06:35:22;;;;;;;15.45;13.25;;;17.40;22.20;;;;;;7392355;19;20117;-67
2023/09/16 06:37:52;;;;;;;15.75;13.38;;;17.40;17.20;;;;;;7391213;19;20070;-66
2023/09/16 06:40:22;;;;;;;15.75;12.93;;;17.60;16.10;;;;;;7392107;19;20019;-67
2023/09/16 06:42:52;;;;;;;18.35;14.02;;;17.50;10.80;;;;;;7391606;19;20035;-68
2023/09/16 06:45:24;;;;;;;18.77;13.63;;;17.50;13.40;;;;;;7391279;19;20149;-68
2023/09/16 06:47:58;;;;;;;16.48;13.43;;;17.60;13.80;;;;;;7387741;19;20002;-67
2023/09/16 06:50:28;;;;;;;18.63;14.02;;;17.70;13.90;;;;;;7390783;19;20043;-67
2023/09/16 06:52:59;;;;;;;17.23;13.68;;;17.70;13.30;;;;;;7390003;19;19998;-68
2023/09/16 06:55:29;;;;;;;16.95;13.80;;;17.90;14.20;;;;;;7390862;19;20526;-68
2023/09/16 06:57:59;;;;;;;18.20;13.70;;;18.00;6.30;;;;;;7389116;19;20014;-67
2023/09/16 07:00:31;;;;;;;16.08;13.25;;;18.00;8.50;;;;;;7390426;19;20031;-67
2023/09/16 07:03:01;;;;;;;18.50;14.30;;;18.10;5.50;;;;;;7389863;19;20010;-68
2023/09/16 07:05:32;;;;;;;18.88;14.05;;;18.00;11.80;;;;;;7390153;19;20022;-68
2023/09/16 07:08:02;;;;;;;19.63;14.18;;;18.20;7.70;;;;;;7388858;19;20026;-68
2023/09/16 07:10:32;;;;;;;17.15;13.40;;;18.30;5.30;;;;;;7390749;19;20014;-67
2023/09/16 07:13:02;;;;;;;16.75;13.35;;;18.40;6.20;;;;;;7390527;19;20018;-67
2023/09/16 07:15:35;;;;;;;15.98;12.90;;;18.50;1.10;;;;;;7389194;19;20022;-67
2023/09/16 07:18:06;;;;;;;17.75;13.85;;;18.50;1.00;;;;;;7389380;19;20085;-68
2023/09/16 07:20:37;;;;;;;16.02;13.20;;;18.80;1.00;;;;;;7389255;19;20044;-67
2023/09/16 07:23:07;;;;;;;16.50;13.35;;;19.10;1.00;;;;;;7388684;19;20007;-67
2023/09/16 07:25:37;;;;;;;18.80;13.77;;;18.90;1.00;;;;;;7390279;19;20031;-67
2023/09/16 07:28:07;;;;;;;16.25;13.02;;;19.00;1.00;;;;;;7389339;19;20074;-67
2023/09/16 07:30:42;;;;;;;16.63;13.50;;;19.10;1.00;;;;;;7389894;19;20014;-68
2023/09/16 07:33:12;;;;;;;17.75;13.48;;;19.30;1.00;;;;;;7388718;19;20010;-67
2023/09/16 07:35:41;;;;;;;14.43;12.27;;;19.40;1.00;;;;;;7386546;19;20021;-67
2023/09/16 07:38:12;;;;;;;17.75;12.70;;;19.60;1.00;;;;;;7389054;19;20078;-67
2023/09/16 07:40:41;;;;;;;14.60;12.07;;;19.80;1.00;;;;;;7389524;19;20493;-67
2023/09/16 07:43:12;;;;;;;15.63;12.80;;;19.90;1.00;;;;;;7388524;19;20089;-68
2023/09/16 07:45:45;;;;;;;16.00;12.10;;;19.90;1.00;;;;;;7388739;19;20011;-67
2023/09/16 07:48:17;;;;;;;16.05;12.35;;;19.80;1.00;;;;;;7388795;19;20014;-67
2023/09/16 07:50:48;;;;;;;14.45;11.77;;;19.80;1.00;;;;;;7389145;19;20082;-67
2023/09/16 07:53:19;;;;;;;16.58;11.90;;;20.10;1.00;;;;;;7388673;19;20019;-67
2023/09/16 07:55:51;;;;;;;14.80;12.60;;;20.30;1.00;;;;;;7388476;19;20006;-67
2023/09/16 07:58:21;;;;;;;15.68;12.20;;;20.40;1.00;;;;;;7388099;19;20041;-67
2023/09/16 08:00:54;;;;;;;18.25;12.10;;;20.50;1.00;;;;;;7389272;19;20374;-68
2023/09/16 08:03:24;;;;;;;14.43;11.07;;;20.50;1.00;;;;;;7388872;19;20082;-67
2023/09/16 08:05:54;;;;;;;13.35;10.93;;;20.70;1.00;;;;;;7387551;19;20527;-68
2023/09/16 08:08:24;;;;;;;14.27;11.63;;;20.90;1.00;;;;;;7388651;19;20002;-67
2023/09/16 08:10:54;;;;;;;11.88;10.45;;;20.80;1.00;;;;;;7387299;19;20022;-67
2023/09/16 08:13:24;;;;;;;16.08;12.15;;;21.10;1.00;;;;;;7388871;19;20018;-67
2023/09/16 08:15:57;;;;;;;14.13;11.32;;;21.00;1.00;;;;;;7386646;19;20020;-67
2023/09/16 08:18:27;;;;;;;12.40;10.77;;;21.10;1.00;;;;;;7388128;19;20493;-68
2023/09/16 08:20:57;;;;;;;11.50;10.30;;;21.20;1.00;;;;;;7386857;19;20371;-68
2023/09/16 08:23:27;;;;;;;15.60;10.77;;;21.50;1.00;;;;;;7388221;19;20565;-67
2023/09/16 08:25:57;;;;;;;12.27;10.00;;;21.60;1.00;;;;;;7387186;19;20195;-66
2023/09/16 08:28:27;;;;;;;13.88;10.45;;;21.70;1.00;;;;;;7388178;19;20035;-68
2023/09/16 08:31:00;;;;;;;11.35;9.48;;;21.80;1.00;;;;;;7388443;19;20468;-67
2023/09/16 08:33:29;;;;;;;12.30;9.30;;;21.80;1.00;;;;;;7390218;19;20022;-68
2023/09/16 08:35:59;;;;;;;13.95;9.93;;;22.10;1.00;;;;;;7392745;19;20025;-68
2023/09/16 08:38:30;;;;;;;10.27;9.18;;;22.10;1.00;;;;;;7394792;19;20025;-69
2023/09/16 08:41:07;;;;;;;10.23;9.13;;;22.10;1.00;;;;;;7394493;19;20019;-68
2023/09/16 08:43:40;;;;;;;10.65;9.13;;;22.10;1.00;;;;;;7395608;19;20010;-67
2023/09/16 08:46:18;;;;;;;10.70;9.02;;;22.30;1.00;;;;;;7393617;19;20077;-69
2023/09/16 08:48:52;;;;;;;11.00;9.38;;;22.40;1.00;;;;;;7394637;19;20014;-68
2023/09/16 08:51:24;;;;;;;13.52;8.98;;;22.30;1.00;;;;;;7393540;19;20082;-68
2023/09/16 08:53:55;;;;;;;10.80;9.13;;;22.50;1.00;;;;;;7393820;19;20039;-68
2023/09/16 08:56:25;;;;;;;10.70;9.27;;;22.80;1.00;;;;;;7393099;19;20014;-67
2023/09/16 08:58:56;;;;;;;10.95;8.70;;;22.80;1.00;;;;;;7393321;19;20056;-68
2023/09/16 09:01:29;;;;;;;14.40;8.35;;;22.80;1.00;;;;;;7393247;19;20832;-68
2023/09/16 09:04:00;;;;;;;12.43;9.02;;;22.90;1.00;;;;;;7393168;19;20017;-68
2023/09/16 09:06:32;;;;;;;13.35;9.45;;;22.80;1.00;;;;;;7393137;19;20023;-67
2023/09/16 09:09:10;;;;;;;9.52;8.23;;;22.80;1.00;;;;;;7392142;19;20010;-68
2023/09/16 09:11:40;;;;;;;10.02;7.90;;;23.10;1.00;;;;;;7391420;19;20022;-68
2023/09/16 09:14:13;;;;;;;11.65;8.75;;;23.20;1.00;;;;;;7392248;19;20031;-68
2023/09/16 09:16:47;;;;;;;10.77;9.07;;;23.20;1.00;;;;;;7392238;19;20010;-68
2023/09/16 09:19:18;;;;;;;8.30;7.43;;;23.10;1.00;;;;;;7393147;19;20017;-68
2023/09/16 09:21:50;;;;;;;10.57;7.78;;;23.40;1.00;;;;;;7393431;19;20027;-68
2023/09/16 09:24:20;;;;;;;8.55;7.30;;;23.50;1.00;;;;;;7392709;19;20014;-67
2023/09/16 09:26:50;;;;;;;12.98;7.57;;;23.60;1.00;;;;;;7393218;19;20078;-69
2023/09/16 09:29:20;;;;;;;7.60;6.68;;;23.70;1.00;;;;;;7392452;19;20033;-69
2023/09/16 09:31:53;;;;;;;10.30;7.65;;;23.80;1.00;;;;;;7393576;19;20130;-68
2023/09/16 09:34:23;;;;;;;7.63;6.80;;;24.00;1.00;;;;;;7392667;19;20304;-68
2023/09/16 09:36:53;;;;;;;6.68;5.68;;;23.90;1.00;;;;;;7391362;19;20010;-67
2023/09/16 09:39:23;;;;;;;7.60;6.18;;;24.00;1.00;;;;;;7391994;19;20015;-68
2023/09/16 09:41:53;;;;;;;8.50;6.03;;;23.80;1.00;;;;;;7390343;19;20006;-68
2023/09/16 09:44:23;;;;;;;6.22;5.63;;;23.60;1.00;;;;;;7391104;19;20458;-68
2023/09/16 09:46:59;;;;;;;6.93;6.00;;;23.60;1.00;;;;;;7390968;19;20023;-68
2023/09/16 09:49:29;;;;;;;6.97;5.78;;;23.90;1.00;;;;;;7391513;19;20015;-68
2023/09/16 09:52:00;;;;;;;7.25;5.78;;;24.10;1.00;;;;;;7390337;19;20006;-68
2023/09/16 09:54:30;;;;;;;6.40;5.72;;;24.20;1.00;;;;;;7392089;19;20015;-68
2023/09/16 09:57:00;;;;;;;7.18;6.03;;;24.30;1.00;;;;;;7390952;19;20046;-67
2023/09/16 09:59:30;;;;;;;5.60;5.10;;;24.20;1.00;;;;;;7390860;19;20007;-68
2023/09/16 10:02:05;;;;;;;5.15;4.65;;;24.40;1.00;;;;;;7389101;19;20010;-68
2023/09/16 10:04:35;;;;;;;6.25;5.65;;;24.40;1.00;;;;;;7392194;19;20554;-68
2023/09/16 10:07:05;;;;;;;6.70;5.50;;;24.40;1.00;;;;;;7391105;19;20014;-68
2023/09/16 10:09:35;;;;;;;5.90;5.30;;;24.70;1.00;;;;;;7392251;19;20020;-68
2023/09/16 10:12:06;;;;;;;6.53;5.72;;;24.70;1.00;;;;;;7390551;19;20086;-68
2023/09/16 10:14:36;;;;;;;7.40;5.32;;;24.10;1.00;;;;;;7392456;19;20031;-69
2023/09/16 10:17:08;;;;;;;6.30;5.30;;;24.50;1.00;;;;;;7388483;19;20521;-68
2023/09/16 10:19:43;;;;;;;5.68;4.97;;;24.90;1.00;;;;;;7391374;19;20010;-67
2023/09/16 10:22:13;;;;;;;5.97;4.68;;;24.90;1.00;;;;;;7389534;19;20007;-67
2023/09/16 10:24:43;;;;;;;5.30;4.60;;;24.70;1.00;;;;;;7391649;19;20034;-69
2023/09/16 10:27:21;;;;;;;5.55;4.95;;;24.90;1.00;;;;;;7389677;19;20025;-67
2023/09/16 10:29:51;;;;;;;8.65;5.32;;;25.00;1.00;;;;;;7391527;19;20017;-68
2023/09/16 10:32:24;;;;;;;5.18;4.68;;;24.90;1.00;;;;;;7390176;19;20086;-69
2023/09/16 10:34:56;;;;;;;5.38;4.55;;;25.00;1.00;;;;;;7391652;19;20007;-69
2023/09/16 10:37:28;;;;;;;5.93;4.20;;;24.70;1.00;;;;;;7389208;19;20482;-69
2023/09/16 10:39:59;;;;;;;5.30;4.28;;;24.50;1.00;;;;;;7390518;19;20014;-68
2023/09/16 10:42:31;;;;;;;5.53;3.92;;;25.00;1.00;;;;;;7387773;19;20006;-69
2023/09/16 10:45:04;;;;;;;4.07;3.67;;;25.30;1.00;;;;;;7391389;19;20002;-68
2023/09/16 10:47:37;;;;;;;6.05;3.97;;;25.40;1.00;;;;;;7389574;19;20369;-69
2023/09/16 10:50:08;;;;;;;6.75;4.22;;;25.70;1.00;;;;;;7390943;19;20018;-69
2023/09/16 10:52:42;;;;;;;4.70;4.30;;;25.50;1.00;;;;;;7389862;19;20403;-70
2023/09/16 10:55:17;;;;;;;6.10;4.53;;;25.80;1.00;;;;;;7389375;19;20479;-69
2023/09/16 10:57:51;;;;;;;5.30;3.67;;;25.60;1.00;;;;;;7388468;19;20035;-68
2023/09/16 11:00:24;;;;;;;3.90;2.90;;;25.60;1.00;;;;;;7390746;19;20014;-66
2023/09/16 11:03:00;;;;;;;5.20;2.95;;;25.90;1.00;;;;;;7387264;19;20040;-68
2023/09/16 11:05:31;;;;;;;4.40;3.50;;;25.80;1.00;;;;;;7389641;19;20018;-68
2023/09/16 11:08:01;;;;;;;4.43;3.30;;;25.80;1.00;;;;;;7389141;19;20010;-68
2023/09/16 11:10:31;;;;;;;5.25;3.70;;;26.20;1.00;;;;;;7389792;19;20078;-68
2023/09/16 11:13:02;;;;;;;5.03;4.07;;;26.30;1.00;;;;;;7390098;19;20100;-68
2023/09/16 11:15:36;;;;;;;3.88;3.50;;;26.30;1.00;;;;;;7389718;19;20029;-68
2023/09/16 11:18:11;;;;;;;4.10;3.70;;;26.10;1.00;;;;;;7388364;19;20478;-67
2023/09/16 11:20:42;;;;;;;4.47;3.47;;;26.10;1.00;;;;;;7388437;19;20339;-67
2023/09/16 11:23:13;;;;;;;4.40;3.47;;;26.20;1.00;;;;;;7388582;19;20088;-68
2023/09/16 11:25:43;;;;;;;4.03;3.22;;;26.00;1.00;;;;;;7389719;19;20006;-67
2023/09/16 11:28:15;;;;;;;4.47;3.28;;;26.00;1.00;;;;;;7388504;19;20017;-66
2023/09/16 11:30:55;;;;;;;3.40;3.10;;;26.10;1.00;;;;;;7388840;19;20019;-68
2023/09/16 11:33:34;;;;;;;6.15;3.13;;;26.20;1.00;;;;;;7389441;19;20022;-67
2023/09/16 11:36:15;;;;;;;4.90;2.95;;;26.10;1.00;;;;;;7387630;19;20355;-67
2023/09/16 11:38:58;;;;;;;3.13;2.75;;;26.10;1.00;;;;;;7386361;19;20014;-69
2023/09/16 11:41:28;;;;;;;3.60;2.80;;;26.40;1.00;;;;;;7366768;19;20797;-67
2023/09/16 11:43:58;;;;;;;3.45;2.53;;;26.50;1.00;;;;;;7370462;19;20016;-69
2023/09/16 11:46:28;;;;;;;2.70;2.50;;;26.40;1.00;;;;;;7367385;19;20447;-67
2023/09/16 11:49:04;;;;;;;2.72;2.53;;;26.50;1.00;;;;;;7369009;19;20051;-68
2023/09/16 11:51:36;;;;;;;3.97;2.38;;;26.60;1.00;;;;;;7366854;19;20074;-68
2023/09/16 11:54:07;;;;;;;2.33;2.10;;;26.60;1.00;;;;;;7368984;19;20010;-68
2023/09/16 11:56:40;;;;;;;2.40;2.20;;;26.70;1.00;;;;;;7365486;19;20010;-69
2023/09/16 11:59:10;;;;;;;2.50;2.30;;;26.50;1.00;;;;;;7368262;19;20021;-68
2023/09/16 12:01:42;;;;;;;3.30;2.08;;;26.60;1.00;;;;;;7366473;19;20027;-68
2023/09/16 12:04:17;;;;;;;3.75;2.70;;;26.60;1.00;;;;;;7368082;19;20015;-68
2023/09/16 12:06:48;;;;;;;3.10;2.08;;;26.70;1.00;;;;;;7363696;19;20104;-69
2023/09/16 12:09:19;;;;;;;2.78;2.13;;;26.80;1.00;;;;;;7374595;19;20015;-68
2023/09/16 12:11:51;;;;;;;3.83;2.10;;;26.90;1.00;;;;;;7373715;19;20032;-68
2023/09/16 12:14:21;;;;;;;4.00;2.10;;;26.90;1.00;;;;;;7373738;19;20010;-66
2023/09/16 12:16:53;;;;;;;2.42;2.22;;;27.00;1.00;;;;;;7370409;19;20090;-67
2023/09/16 12:19:26;;;;;;;2.15;1.95;;;27.10;1.00;;;;;;7373598;19;20434;-67
2023/09/16 12:21:56;;;;;;;2.15;1.90;;;27.10;1.00;;;;;;7373915;19;20380;-67
2023/09/16 12:24:26;;;;;;;2.83;2.10;;;26.70;1.00;;;;;;7373270;19;20474;-68
2023/09/16 12:26:57;;;;;;;2.47;1.98;;;27.00;1.00;;;;;;7372351;19;20085;-68
2023/09/16 12:29:29;;;;;;;1.83;1.73;;;27.20;1.00;;;;;;7373824;19;20014;-69
2023/09/16 12:32:10;;;;;;;2.83;2.03;;;27.30;1.00;;;;;;7374140;19;20495;-68
2023/09/16 12:34:43;;;;;;;1.92;1.70;;;27.20;1.00;;;;;;7373600;19;20018;-69
2023/09/16 12:37:15;;;;;;;2.75;1.70;;;27.10;1.00;;;;;;7370571;19;20073;-68
2023/09/16 12:39:46;;;;;;;2.50;1.90;;;27.10;1.00;;;;;;7390096;19;20033;-67
2023/09/16 12:42:16;;;;;;;2.53;2.10;;;27.30;1.00;;;;;;7392168;19;20010;-68
2023/09/16 12:44:46;;;;;;;2.10;1.90;;;27.30;1.00;;;;;;7373331;19;20573;-68
2023/09/16 12:47:17;;;;;;;4.07;2.65;;;27.50;1.00;;;;;;7372101;19;20011;-68
2023/09/16 12:49:50;;;;;;;2.33;2.13;;;27.60;1.00;;;;;;7375065;19;20029;-68
2023/09/16 12:52:20;;;;;;;1.92;1.80;;;27.40;1.00;;;;;;7368011;19;20090;-69
2023/09/16 12:54:50;;;;;;;2.60;1.85;;;27.50;1.00;;;;;;7374512;19;20345;-68
2023/09/16 12:57:21;;;;;;;2.88;1.90;;;27.30;1.00;;;;;;7373039;19;20014;-68
2023/09/16 13:00:03;;;;;;;1.70;1.60;;;27.40;1.00;;;;;;7374432;19;20118;-68